createdAt,value
2023-05-08T00:00:35.391Z,160757.41
2023-05-08T00:03:39.893Z,160729.94
2023-05-08T00:06:44.026Z,160748.22
2023-05-08T00:09:50.163Z,160756.09
2023-05-08T00:12:55.396Z,160757.41
2023-05-08T00:15:59.386Z,160739.09
2023-05-08T00:19:03.892Z,160744.34
2023-05-08T00:22:08.286Z,160727.34
2023-05-08T00:25:12.544Z,160735.19
2023-05-08T00:28:16.630Z,160753.47
2023-05-08T00:31:20.815Z,160732.59
2023-05-08T00:34:24.824Z,160753.47
2023-05-08T00:37:29.248Z,160714.28
2023-05-08T00:40:33.765Z,160722.09
2023-05-08T00:43:39.903Z,160688.13
2023-05-08T00:46:45.009Z,160689.47
2023-05-08T00:49:49.275Z,160694.66
2023-05-08T00:52:54.099Z,160663.31
2023-05-08T00:55:59.003Z,160665.91
2023-05-08T00:59:14.174Z,160663.31
2023-05-08T01:02:18.496Z,160659.41
2023-05-08T01:05:22.488Z,160646.28
2023-05-08T01:08:26.972Z,160660.72
2023-05-08T01:11:40.674Z,160646.28
2023-05-08T01:14:53.227Z,160660.72
2023-05-08T01:18:19.751Z,160658.13
2023-05-08T01:21:54.238Z,160622.81
2023-05-08T01:25:10.199Z,160616.28
2023-05-08T01:29:02.320Z,160603.25
2023-05-08T01:32:36.287Z,160594.06
2023-05-08T01:35:45.450Z,160565.34
2023-05-08T01:39:00.992Z,160590.16
2023-05-08T01:42:07.883Z,160584.91
2023-05-08T01:45:34.699Z,160594.06
2023-05-08T01:48:49.998Z,160580.97
2023-05-08T01:52:03.108Z,160556.16
2023-05-08T01:55:14.135Z,160586.22
2023-05-08T01:58:19.606Z,160575.81
2023-05-08T02:01:25.688Z,160580.97
2023-05-08T02:04:31.970Z,160549.63
2023-05-08T02:07:40.426Z,160570.59
2023-05-08T02:10:45.973Z,160560.09
2023-05-08T02:13:51.429Z,160545.78
2023-05-08T02:16:57.615Z,160547.03
2023-05-08T02:20:03.748Z,160541.84
2023-05-08T02:23:08.702Z,160511.78
2023-05-08T02:26:16.453Z,160501.28
2023-05-08T02:29:23.295Z,160503.94
2023-05-08T02:32:29.741Z,160523.50
2023-05-08T02:35:35.353Z,160519.63
2023-05-08T02:38:43.095Z,160513.13
2023-05-08T02:41:47.571Z,160485.66
2023-05-08T02:44:51.376Z,160489.53
2023-05-08T02:48:10.891Z,160481.72
2023-05-08T02:51:18.194Z,160473.88
2023-05-08T02:54:46.121Z,160449.09
2023-05-08T02:58:31.150Z,160453.00
2023-05-08T03:02:04.691Z,160443.84
2023-05-08T03:05:38.329Z,160417.78
2023-05-08T03:08:43.439Z,160415.13
2023-05-08T03:11:50.067Z,160399.44
2023-05-08T03:15:04.844Z,160417.78
2023-05-08T03:18:11.820Z,160400.75
2023-05-08T03:21:18.654Z,160395.56
2023-05-08T03:24:24.025Z,160390.31
2023-05-08T03:27:29.405Z,160373.31
2023-05-08T03:30:36.778Z,160361.59
2023-05-08T03:33:43.148Z,160366.78
2023-05-08T03:36:47.179Z,160394.22
2023-05-08T03:39:52.003Z,160403.34
2023-05-08T03:42:57.144Z,160390.31
2023-05-08T03:46:01.659Z,160406.00
2023-05-08T03:49:07.582Z,160382.47
2023-05-08T03:52:13.210Z,160368.13
2023-05-08T03:55:17.309Z,160368.13
2023-05-08T03:58:55.323Z,160366.78
2023-05-08T04:02:12.701Z,160369.38
2023-05-08T04:05:40.339Z,160369.38
2023-05-08T04:09:13.138Z,160365.47
2023-05-08T04:12:29.457Z,160385.13
2023-05-08T04:15:38.357Z,160375.97
2023-05-08T04:18:47.848Z,160394.22
2023-05-08T04:21:55.851Z,160378.56
2023-05-08T04:25:03.740Z,160399.44
2023-05-08T04:28:08.596Z,160399.44
2023-05-08T04:31:15.781Z,160425.63
2023-05-08T04:34:20.343Z,160411.19
2023-05-08T04:37:29.496Z,160437.31
2023-05-08T04:40:33.480Z,160428.22
2023-05-08T04:43:38.458Z,160477.81
2023-05-08T04:46:42.358Z,160466.03
2023-05-08T04:49:46.721Z,160462.13
2023-05-08T04:52:50.953Z,160500.03
2023-05-08T04:55:55.079Z,160511.78
2023-05-08T04:58:59.372Z,160515.72
2023-05-08T05:02:03.598Z,160544.44
2023-05-08T05:05:07.936Z,160517.03
2023-05-08T05:08:11.927Z,160536.59
2023-05-08T05:11:16.106Z,160584.91
2023-05-08T05:14:20.346Z,160595.41
2023-05-08T05:17:24.798Z,160611.03
2023-05-08T05:20:28.890Z,160642.38
2023-05-08T05:23:33.138Z,160665.91
2023-05-08T05:26:37.363Z,160690.78
2023-05-08T05:29:41.273Z,160695.94
2023-05-08T05:32:45.363Z,160710.38
2023-05-08T05:35:49.832Z,160727.34
2023-05-08T05:38:53.985Z,160727.34
2023-05-08T05:41:57.834Z,160737.78
2023-05-08T05:45:02.106Z,160807.06
2023-05-08T05:48:06.459Z,160821.44
2023-05-08T05:51:10.884Z,160847.59
2023-05-08T05:54:15.116Z,160872.44
2023-05-08T05:57:19.697Z,160899.88
2023-05-08T06:00:23.894Z,160914.25
2023-05-08T06:03:28.667Z,160935.16
2023-05-08T06:06:32.749Z,160992.69
2023-05-08T06:09:36.852Z,161020.13
2023-05-08T06:12:41.423Z,161059.38
2023-05-08T06:15:46.256Z,161103.81
2023-05-08T06:18:51.061Z,161098.53
2023-05-08T06:21:55.036Z,161102.47
2023-05-08T06:24:59.624Z,161110.38
2023-05-08T06:28:06.657Z,161114.31
2023-05-08T06:31:11.124Z,161149.56
2023-05-08T06:34:15.647Z,161157.44
2023-05-08T06:37:20.067Z,161192.75
2023-05-08T06:40:24.389Z,161233.28
2023-05-08T06:43:28.639Z,161250.28
2023-05-08T06:46:32.837Z,161243.72
2023-05-08T06:49:37.178Z,161353.66
2023-05-08T06:52:42.668Z,161402.00
2023-05-08T06:55:46.702Z,161511.97
2023-05-08T06:58:57.077Z,161518.47
2023-05-08T07:02:10.208Z,161547.25
2023-05-08T07:05:14.856Z,161534.19
2023-05-08T07:08:19.704Z,161606.16
2023-05-08T07:11:24.258Z,161703.06
2023-05-08T07:14:28.540Z,161730.50
2023-05-08T07:17:32.809Z,161831.34
2023-05-08T07:20:36.969Z,161847.06
2023-05-08T07:23:41.355Z,161903.34
2023-05-08T07:26:45.703Z,161951.84
2023-05-08T07:29:50.029Z,162006.81
2023-05-08T07:32:54.275Z,162023.84
2023-05-08T07:35:58.670Z,162114.22
2023-05-08T07:39:04.001Z,162253.06
2023-05-08T07:42:08.205Z,162313.41
2023-05-08T07:45:13.838Z,162392.03
2023-05-08T07:48:18.157Z,162538.78
2023-05-08T07:51:22.208Z,162650.25
2023-05-08T07:54:26.783Z,162875.78
2023-05-08T07:57:39.831Z,163115.88
2023-05-08T08:00:44.904Z,163428.25
2023-05-08T08:03:49.221Z,163529.28
2023-05-08T08:06:53.363Z,163489.94
2023-05-08T08:09:57.434Z,163399.28
2023-05-08T08:13:02.344Z,163430.88
2023-05-08T08:16:06.567Z,163374.34
2023-05-08T08:19:13.483Z,163094.91
2023-05-08T08:22:17.808Z,163079.09
2023-05-08T08:25:22.445Z,163426.91
2023-05-08T08:28:26.530Z,163367.84
2023-05-08T08:31:30.916Z,163524.03
2023-05-08T08:34:35.774Z,163781.44
2023-05-08T08:37:39.609Z,163882.53
2023-05-08T08:40:44.224Z,163693.44
2023-05-08T08:43:48.427Z,163504.38
2023-05-08T08:46:53.345Z,163483.31
2023-05-08T08:50:01.763Z,163454.47
2023-05-08T08:53:31.002Z,163325.81
2023-05-08T08:56:38.103Z,163247.09
2023-05-08T08:59:44.313Z,163399.28
2023-05-08T09:02:49.033Z,163308.75
2023-05-08T09:05:55.021Z,163337.59
2023-05-08T09:08:59.396Z,163256.28
2023-05-08T09:12:06.291Z,163207.75
2023-05-08T09:15:11.501Z,163064.69
2023-05-08T09:18:15.610Z,163092.22
2023-05-08T09:21:23.086Z,162905.94
2023-05-08T09:24:56.951Z,162921.69
2023-05-08T09:28:19.036Z,163016.19
2023-05-08T09:31:35.004Z,162982.06
2023-05-08T09:34:39.201Z,162905.94
2023-05-08T09:37:43.752Z,162854.78
2023-05-08T09:41:06.487Z,162989.91
2023-05-08T09:44:10.671Z,162883.63
2023-05-08T09:47:23.021Z,162874.50
2023-05-08T09:50:27.777Z,162777.44
2023-05-08T09:53:32.421Z,162795.78
2023-05-08T09:56:39.276Z,162782.66
2023-05-08T09:59:43.519Z,162766.94
2023-05-08T10:03:02.479Z,162832.53
2023-05-08T10:06:14.279Z,162853.50
2023-05-08T10:09:18.470Z,162861.41
2023-05-08T10:12:22.718Z,162835.16
2023-05-08T10:15:30.056Z,162802.34
2023-05-08T10:18:36.580Z,162795.78
2023-05-08T10:21:44.804Z,162849.59
2023-05-08T10:24:53.057Z,162835.16
2023-05-08T10:27:58.097Z,162815.47
2023-05-08T10:31:03.866Z,162795.78
2023-05-08T10:34:09.118Z,162797.06
2023-05-08T10:37:13.341Z,162804.97
2023-05-08T10:40:21.465Z,162773.50
2023-05-08T10:43:26.213Z,162808.91
2023-05-08T10:46:36.781Z,162881.03
2023-05-08T10:50:02.492Z,162884.97
2023-05-08T10:53:14.172Z,162937.41
2023-05-08T10:56:18.088Z,162950.53
2023-05-08T10:59:23.814Z,162895.47
2023-05-08T11:02:36.970Z,162947.94
2023-05-08T11:05:49.460Z,162980.75
2023-05-08T11:08:54.744Z,162982.06
2023-05-08T11:12:20.107Z,163001.72
2023-05-08T11:15:41.295Z,163066.03
2023-05-08T11:19:18.128Z,163085.72
2023-05-08T11:22:33.136Z,163135.56
2023-05-08T11:25:44.703Z,163153.88
2023-05-08T11:28:58.342Z,163139.47
2023-05-08T11:32:02.775Z,163122.44
2023-05-08T11:35:11.207Z,163125.06
2023-05-08T11:38:21.395Z,163139.47
2023-05-08T11:41:25.915Z,163184.09
2023-05-08T11:44:30.691Z,163219.53
2023-05-08T11:47:38.669Z,163189.31
2023-05-08T11:50:42.724Z,163233.97
2023-05-08T11:53:47.488Z,163285.16
2023-05-08T11:56:57.162Z,163320.56
2023-05-08T12:00:06.060Z,163286.50
2023-05-08T12:03:17.524Z,163262.84
2023-05-08T12:06:23.848Z,163321.91
2023-05-08T12:09:27.968Z,163319.28
2023-05-08T12:12:42.759Z,163308.75
2023-05-08T12:15:49.072Z,163283.81
2023-05-08T12:18:56.196Z,163257.63
2023-05-08T12:22:00.346Z,163164.41
2023-05-08T12:25:06.923Z,163216.88
2023-05-08T12:28:11.176Z,163270.69
2023-05-08T12:31:15.815Z,163341.56
2023-05-08T12:34:21.161Z,163346.84
2023-05-08T12:37:28.633Z,163348.19
2023-05-08T12:40:49.082Z,163421.66
2023-05-08T12:43:53.177Z,163390.16
2023-05-08T12:46:57.798Z,163359.97
2023-05-08T12:50:02.349Z,163395.41
2023-05-08T12:53:09.366Z,163434.75
2023-05-08T12:56:16.030Z,163458.38
2023-05-08T12:59:28.928Z,163513.56
2023-05-08T13:02:34.447Z,163507.00
2023-05-08T13:05:45.912Z,163538.50
2023-05-08T13:08:57.321Z,163583.13
2023-05-08T13:12:01.548Z,163584.47
2023-05-08T13:15:06.069Z,163587.03
2023-05-08T13:18:10.845Z,163569.97
2023-05-08T13:21:15.826Z,163588.38
2023-05-08T13:24:19.738Z,163546.38
2023-05-08T13:27:24.042Z,163521.41
2023-05-08T13:30:28.143Z,163572.66
2023-05-08T13:33:32.257Z,163585.81
2023-05-08T13:36:36.399Z,163585.81
2023-05-08T13:39:41.130Z,163587.03
2023-05-08T13:42:45.379Z,163592.31
2023-05-08T13:45:52.848Z,163601.53
2023-05-08T13:49:01.674Z,163621.22
2023-05-08T13:52:05.949Z,163609.41
2023-05-08T13:55:12.531Z,163608.09
2023-05-08T13:58:16.921Z,163654.03
2023-05-08T14:01:26.621Z,163592.31
2023-05-08T14:04:31.413Z,163594.94
2023-05-08T14:07:36.132Z,163617.28
2023-05-08T14:10:40.827Z,163643.56
2023-05-08T14:13:44.899Z,163646.16
2023-05-08T14:16:50.932Z,163673.78
2023-05-08T14:19:54.819Z,163672.44
2023-05-08T14:23:00.207Z,163626.47
2023-05-08T14:26:06.227Z,163609.41
2023-05-08T14:29:10.563Z,163597.59
2023-05-08T14:32:14.757Z,163588.38
2023-05-08T14:35:18.903Z,163604.13
2023-05-08T14:38:23.299Z,163598.91
2023-05-08T14:41:29.161Z,163584.47
2023-05-08T14:44:33.421Z,163583.13
2023-05-08T14:47:38.769Z,163623.84
2023-05-08T14:50:42.818Z,163587.03
2023-05-08T14:53:47.154Z,163613.31
2023-05-08T14:56:51.337Z,163564.75
2023-05-08T14:59:56.791Z,163594.94
2023-05-08T15:03:00.848Z,163589.72
2023-05-08T15:06:05.314Z,163542.41
2023-05-08T15:09:09.621Z,163571.31
2023-05-08T15:12:14.113Z,163604.13
2023-05-08T15:15:18.486Z,163594.94
2023-05-08T15:18:24.525Z,163629.09
2023-05-08T15:21:28.814Z,163636.94
2023-05-08T15:24:32.703Z,163660.63
2023-05-08T15:27:36.957Z,163668.47
2023-05-08T15:30:41.947Z,163672.44
2023-05-08T15:33:48.003Z,163681.63
2023-05-08T15:36:52.203Z,163673.78
2023-05-08T15:39:56.694Z,163636.94
2023-05-08T15:43:00.987Z,163581.84
2023-05-08T15:46:05.009Z,163594.94
2023-05-08T15:49:09.122Z,163580.50
2023-05-08T15:52:15.495Z,163592.31
2023-05-08T15:55:20.759Z,163619.91
2023-05-08T15:58:25.349Z,163629.09
2023-05-08T16:01:29.509Z,163619.91
2023-05-08T16:04:33.895Z,163627.81
2023-05-08T16:07:38.186Z,163548.97
2023-05-08T16:10:42.488Z,163512.22
2023-05-08T16:13:47.133Z,163496.47
2023-05-08T16:16:51.128Z,163472.84
2023-05-08T16:19:55.443Z,163472.84
2023-05-08T16:22:59.766Z,163465.00
2023-05-08T16:26:03.978Z,163470.19
2023-05-08T16:29:08.290Z,163468.94
2023-05-08T16:32:12.760Z,163445.28
2023-05-08T16:35:17.574Z,163425.56
2023-05-08T16:38:22.001Z,163378.31
2023-05-08T16:41:27.812Z,163407.25
2023-05-08T16:44:31.950Z,163384.94
2023-05-08T16:47:36.353Z,163357.38
2023-05-08T16:50:40.792Z,163366.50
2023-05-08T16:53:45.389Z,163371.78
2023-05-08T16:56:49.796Z,163346.84
2023-05-08T16:59:54.503Z,163310.09
2023-05-08T17:02:58.733Z,163291.69
2023-05-08T17:06:07.490Z,163303.47
2023-05-08T17:09:11.799Z,163307.47
2023-05-08T17:12:15.966Z,163294.34
2023-05-08T17:15:21.749Z,163270.69
2023-05-08T17:18:26.048Z,163262.84
2023-05-08T17:21:32.092Z,163260.22
2023-05-08T17:24:37.934Z,163257.63
2023-05-08T17:27:41.796Z,163233.97
2023-05-08T17:30:46.507Z,163231.34
2023-05-08T17:33:51.727Z,163239.19
2023-05-08T17:36:55.962Z,163214.31
2023-05-08T17:40:00.057Z,163205.06
2023-05-08T17:43:04.124Z,163195.91
2023-05-08T17:46:08.810Z,163190.66
2023-05-08T17:49:14.535Z,163169.69
2023-05-08T17:52:19.530Z,163151.31
2023-05-08T17:55:24.058Z,163128.94
2023-05-08T17:58:28.379Z,163109.31
2023-05-08T18:01:32.734Z,163084.38
2023-05-08T18:04:36.920Z,163075.16
2023-05-08T18:07:41.302Z,163068.63
2023-05-08T18:10:45.645Z,163042.38
2023-05-08T18:13:50.633Z,163020.13
2023-05-08T18:16:54.535Z,163000.38
2023-05-08T18:19:58.835Z,162985.97
2023-05-08T18:23:03.414Z,162955.81
2023-05-08T18:26:07.711Z,162949.25
2023-05-08T18:29:11.844Z,162916.50
2023-05-08T18:32:16.436Z,162912.50
2023-05-08T18:35:21.637Z,162905.94
2023-05-08T18:38:26.023Z,162891.53
2023-05-08T18:41:30.258Z,162858.72
2023-05-08T18:44:34.453Z,162822.03
2023-05-08T18:47:38.850Z,162794.50
2023-05-08T18:50:42.980Z,162786.63
2023-05-08T18:53:47.115Z,162782.66
2023-05-08T18:56:51.752Z,162785.28
2023-05-08T18:59:55.902Z,162748.59
2023-05-08T19:03:00.298Z,162753.88
2023-05-08T19:06:04.554Z,162676.44
2023-05-08T19:09:09.100Z,162651.53
2023-05-08T19:12:13.482Z,162668.59
2023-05-08T19:15:17.485Z,162646.31
2023-05-08T19:18:21.885Z,162620.09
2023-05-08T19:21:26.134Z,162595.19
2023-05-08T19:24:31.992Z,162575.53
2023-05-08T19:27:36.882Z,162537.53
2023-05-08T19:30:41.069Z,162532.25
2023-05-08T19:33:47.198Z,162520.47
2023-05-08T19:36:51.273Z,162507.34
2023-05-08T19:39:56.439Z,162481.13
2023-05-08T19:43:01.043Z,162464.09
2023-05-08T19:46:05.336Z,162444.41
2023-05-08T19:49:10.047Z,162423.44
2023-05-08T19:52:14.114Z,162389.38
2023-05-08T19:55:18.705Z,162393.25
2023-05-08T19:58:22.792Z,162357.94
2023-05-08T20:01:27.220Z,162368.38
2023-05-08T20:04:33.886Z,162355.31
2023-05-08T20:07:43.362Z,162298.97
2023-05-08T20:10:50.440Z,162274.03
2023-05-08T20:13:54.946Z,162279.31
2023-05-08T20:16:59.212Z,162259.66
2023-05-08T20:20:03.896Z,162225.56
2023-05-08T20:23:08.245Z,162204.66
2023-05-08T20:26:12.956Z,162177.06
2023-05-08T20:29:17.715Z,162148.25
2023-05-08T20:32:21.882Z,162132.53
2023-05-08T20:35:25.919Z,162115.50
2023-05-08T20:38:30.512Z,162105.06
2023-05-08T20:41:34.677Z,162098.47
2023-05-08T20:44:38.848Z,162067.06
2023-05-08T20:47:43.009Z,162053.97
2023-05-08T20:50:50.505Z,162044.75
2023-05-08T20:53:54.640Z,162034.31
2023-05-08T20:56:59.337Z,162017.28
2023-05-08T21:00:04.084Z,161979.28
2023-05-08T21:03:08.326Z,161979.28
2023-05-08T21:06:12.935Z,161962.25
2023-05-08T21:09:16.805Z,161942.63
2023-05-08T21:12:21.196Z,161967.53
2023-05-08T21:15:25.594Z,161934.78
2023-05-08T21:18:29.626Z,161919.09
2023-05-08T21:21:33.603Z,161902.06
2023-05-08T21:24:43.099Z,161912.50
2023-05-08T21:27:47.038Z,161873.22
2023-05-08T21:30:51.060Z,161844.44
2023-05-08T21:33:55.730Z,161848.38
2023-05-08T21:36:59.723Z,161832.63
2023-05-08T21:40:04.727Z,161832.63
2023-05-08T21:43:08.979Z,161833.97
2023-05-08T21:46:13.256Z,161837.84
2023-05-08T21:49:17.699Z,161835.25
2023-05-08T21:52:22.531Z,161807.75
2023-05-08T21:55:26.520Z,161771.09
2023-05-08T21:58:30.958Z,161763.22
2023-05-08T22:01:35.136Z,161746.19
2023-05-08T22:04:39.292Z,161734.44
2023-05-08T22:07:43.617Z,161707.00
2023-05-08T22:10:47.653Z,161687.31
2023-05-08T22:13:51.726Z,161689.94
2023-05-08T22:16:56.134Z,161697.78
2023-05-08T22:20:00.270Z,161680.78
2023-05-08T22:23:04.557Z,161692.53
2023-05-08T22:26:08.640Z,161683.38
2023-05-08T22:29:12.832Z,161662.44
2023-05-08T22:32:18.018Z,161658.50
2023-05-08T22:35:24.162Z,161623.19
2023-05-08T22:38:28.479Z,161645.41
2023-05-08T22:41:34.234Z,161599.63
2023-05-08T22:44:38.411Z,161598.31
2023-05-08T22:47:42.692Z,161578.69
2023-05-08T22:50:46.717Z,161565.59
2023-05-08T22:53:50.868Z,161545.94
2023-05-08T22:56:55.064Z,161564.28
2023-05-08T22:59:58.909Z,161545.94
2023-05-08T23:03:03.225Z,161522.38
2023-05-08T23:06:07.549Z,161532.91
2023-05-08T23:09:11.968Z,161511.97
2023-05-08T23:12:15.996Z,161508.03
2023-05-08T23:15:21.192Z,161501.44
2023-05-08T23:18:25.390Z,161511.97
2023-05-08T23:21:29.897Z,161494.97
2023-05-08T23:24:37.279Z,161508.03
2023-05-08T23:27:41.489Z,161475.34
2023-05-08T23:30:45.661Z,161485.75
2023-05-08T23:33:49.703Z,161484.44
2023-05-08T23:36:53.904Z,161459.56
2023-05-08T23:39:58.748Z,161485.75
2023-05-08T23:43:02.823Z,161459.56
2023-05-08T23:46:07.011Z,161447.81
2023-05-08T23:49:10.976Z,161453.06
2023-05-08T23:52:15.343Z,161450.41
2023-05-08T23:55:20.226Z,161442.56
2023-05-08T23:58:24.565Z,161415.13
